Time,TemperatureF,DewpointF,PressureIn,WindDirection,WindDirectionDegrees,WindSpeedMPH,WindSpeedGustMPH,Humidity,HourlyPrecipIn,Conditions,Clouds,dailyrainin,SoftwareType,DateUTC
2013-05-28 00:03:00,68.4,63.7,29.98,ENE,67,2.7,-999.0,85,-99.99,,,0.00,Acu-Link.com,2013-05-28 04:03:00,
2013-05-28 00:18:00,68.2,63.8,29.98,NNE,22,3.2,-999.0,86,-99.99,,,0.00,Acu-Link.com,2013-05-28 04:18:00,
2013-05-28 00:33:00,68.0,63.6,29.99,NE,45,2.7,-999.0,86,-99.99,,,0.00,Acu-Link.com,2013-05-28 04:33:00,
2013-05-28 00:48:00,67.6,63.3,29.98,NNE,22,1.7,-999.0,86,-99.99,,,0.00,Acu-Link.com,2013-05-28 04:48:00,
2013-05-28 01:04:00,67.5,63.5,29.97,ENE,67,2.7,-999.0,87,-99.99,,,0.00,Acu-Link.com,2013-05-28 05:04:00,
2013-05-28 01:19:00,67.1,63.4,29.97,ESE,112,4.2,-999.0,88,-99.99,,,0.00,Acu-Link.com,2013-05-28 05:19:00,
2013-05-28 01:34:00,66.9,63.5,29.96,East,90,2.7,-999.0,89,-99.99,,,0.00,Acu-Link.com,2013-05-28 05:34:00,
2013-05-28 01:49:00,66.6,63.3,29.96,East,90,2.7,-999.0,89,-99.99,,,0.00,Acu-Link.com,2013-05-28 05:49:00,
2013-05-28 02:04:00,66.4,63.4,29.96,ESE,112,3.2,-999.0,90,-99.99,,,0.00,Acu-Link.com,2013-05-28 06:04:00,
2013-05-28 02:20:00,66.4,63.4,29.95,East,90,3.7,-999.0,90,-99.99,,,0.00,Acu-Link.com,2013-05-28 06:20:00,
2013-05-28 02:35:00,66.2,63.2,29.95,ENE,67,1.7,-999.0,90,-99.99,,,0.00,Acu-Link.com,2013-05-28 06:35:00,
2013-05-28 02:50:00,66.2,63.5,29.94,East,90,1.7,-999.0,91,-99.99,,,0.00,Acu-Link.com,2013-05-28 06:50:00,
2013-05-28 03:05:00,66.2,63.8,29.95,ENE,67,1.7,-999.0,92,-99.99,,,0.00,Acu-Link.com,2013-05-28 07:05:00,
2013-05-28 03:20:00,66.2,63.8,29.94,NE,45,1.7,-999.0,92,-99.99,,,0.00,Acu-Link.com,2013-05-28 07:20:00,
2013-05-28 03:36:00,66.2,63.8,29.94,East,90,2.7,-999.0,92,-99.99,,,0.00,Acu-Link.com,2013-05-28 07:36:00,
2013-05-28 03:51:00,66.0,63.6,29.94,NNE,22,2.2,-999.0,92,-99.99,,,0.00,Acu-Link.com,2013-05-28 07:51:00,
2013-05-28 04:06:00,66.0,63.6,29.93,NE,45,2.7,-999.0,92,-99.99,,,0.00,Acu-Link.com,2013-05-28 08:06:00,
2013-05-28 04:22:00,66.0,63.6,29.93,North,0,2.2,-999.0,92,-99.99,,,0.00,Acu-Link.com,2013-05-28 08:22:00,
2013-05-28 04:37:00,66.0,63.6,29.94,East,90,3.2,-999.0,92,-99.99,,,0.00,Acu-Link.com,2013-05-28 08:37:00,
2013-05-28 04:52:00,65.8,63.4,29.92,East,90,3.7,-999.0,92,-99.99,,,0.00,Acu-Link.com,2013-05-28 08:52:00,
2013-05-28 05:07:00,65.7,63.3,29.93,NE,45,3.2,-999.0,92,-99.99,,,0.00,Acu-Link.com,2013-05-28 09:07:00,
2013-05-28 05:22:00,65.5,63.1,29.92,ESE,112,2.2,-999.0,92,-99.99,,,0.00,Acu-Link.com,2013-05-28 09:22:00,
2013-05-28 05:37:00,65.3,63.2,29.93,ESE,112,2.2,-999.0,93,-99.99,,,0.00,Acu-Link.com,2013-05-28 09:37:00,
2013-05-28 05:53:00,65.1,63.0,29.92,East,90,2.2,-999.0,93,-99.99,,,0.00,Acu-Link.com,2013-05-28 09:53:00,
2013-05-28 06:08:00,65.3,63.2,29.94,NE,45,1.7,-999.0,93,-99.99,,,0.00,Acu-Link.com,2013-05-28 10:08:00,
2013-05-28 06:23:00,65.5,63.4,29.93,East,90,3.2,-999.0,93,-99.99,,,0.00,Acu-Link.com,2013-05-28 10:23:00,
2013-05-28 06:38:00,65.5,63.4,29.94,East,90,2.7,-999.0,93,-99.99,,,0.00,Acu-Link.com,2013-05-28 10:38:00,
2013-05-28 06:53:00,66.4,64.3,29.94,ENE,67,3.7,-999.0,93,-99.99,,,0.00,Acu-Link.com,2013-05-28 10:53:00,
2013-05-28 07:09:00,68.4,65.3,29.94,ESE,112,2.2,-999.0,90,-99.99,,,0.00,Acu-Link.com,2013-05-28 11:09:00,
2013-05-28 07:24:00,70.5,66.1,29.95,ESE,112,3.7,-999.0,86,-99.99,,,0.00,Acu-Link.com,2013-05-28 11:24:00,
2013-05-28 07:39:00,73.2,67.0,29.95,ESE,112,2.7,-999.0,81,-99.99,,,0.00,Acu-Link.com,2013-05-28 11:39:00,
2013-05-28 07:54:00,75.4,67.7,29.96,East,90,3.7,-999.0,77,-99.99,,,0.00,Acu-Link.com,2013-05-28 11:54:00,
2013-05-28 08:09:00,77.0,68.5,29.95,East,90,4.2,-999.0,75,-99.99,,,0.00,Acu-Link.com,2013-05-28 12:09:00,
2013-05-28 08:25:00,78.8,69.4,29.95,ESE,112,4.2,-999.0,73,-99.99,,,0.00,Acu-Link.com,2013-05-28 12:25:00,
2013-05-28 08:40:00,78.8,69.8,29.95,ESE,112,3.7,-999.0,74,-99.99,,,0.00,Acu-Link.com,2013-05-28 12:40:00,
2013-05-28 08:55:00,80.1,70.2,29.95,ESE,112,7.8,-999.0,72,-99.99,,,0.00,Acu-Link.com,2013-05-28 12:55:00,
2013-05-28 09:10:00,81.3,70.1,29.95,ESE,112,8.3,-999.0,69,-99.99,,,0.00,Acu-Link.com,2013-05-28 13:10:00,
2013-05-28 09:26:00,82.0,70.4,29.96,ESE,112,9.4,-999.0,68,-99.99,,,0.00,Acu-Link.com,2013-05-28 13:26:00,
2013-05-28 09:41:00,80.8,70.1,29.95,ESE,112,7.8,-999.0,70,-99.99,,,0.00,Acu-Link.com,2013-05-28 13:41:00,
2013-05-28 09:56:00,82.4,71.2,29.96,West,270,2.2,-999.0,69,-99.99,,,0.00,Acu-Link.com,2013-05-28 13:56:00,
2013-05-28 10:11:00,82.6,70.1,29.97,ESE,112,5.8,-999.0,66,-99.99,,,0.00,Acu-Link.com,2013-05-28 14:11:00,
2013-05-28 10:26:00,82.8,69.4,29.97,ESE,112,4.2,-999.0,64,-99.99,,,0.00,Acu-Link.com,2013-05-28 14:26:00,
2013-05-28 10:42:00,81.9,69.0,29.97,East,90,5.8,-999.0,65,-99.99,,,0.00,Acu-Link.com,2013-05-28 14:42:00,
2013-05-28 10:57:00,82.4,69.0,29.96,East,90,7.8,-999.0,64,-99.99,,,0.00,Acu-Link.com,2013-05-28 14:57:00,
2013-05-28 11:12:00,82.8,69.4,29.97,East,90,4.7,-999.0,64,-99.99,,,0.00,Acu-Link.com,2013-05-28 15:12:00,
2013-05-28 11:27:00,84.7,69.2,29.97,ESE,112,11.4,-999.0,60,-99.99,,,0.00,Acu-Link.com,2013-05-28 15:27:00,
2013-05-28 11:42:00,84.9,68.4,29.97,SE,135,6.3,-999.0,58,-99.99,,,0.00,Acu-Link.com,2013-05-28 15:42:00,
2013-05-28 11:58:00,86.0,69.5,29.97,East,90,10.9,-999.0,58,-99.99,,,0.00,Acu-Link.com,2013-05-28 15:58:00,
2013-05-28 12:13:00,85.8,68.3,29.96,SSE,157,6.8,-999.0,56,-99.99,,,0.00,Acu-Link.com,2013-05-28 16:13:00,
2013-05-28 12:28:00,84.9,67.9,29.97,NE,45,4.7,-999.0,57,-99.99,,,0.00,Acu-Link.com,2013-05-28 16:28:00,
2013-05-28 12:43:00,85.8,67.7,29.96,ESE,112,9.9,-999.0,55,-99.99,,,0.00,Acu-Link.com,2013-05-28 16:43:00,
2013-05-28 12:58:00,88.3,68.4,29.95,ESE,112,9.9,-999.0,52,-99.99,,,0.00,Acu-Link.com,2013-05-28 16:58:00,
2013-05-28 13:14:00,87.6,68.3,29.96,SSE,157,9.4,-999.0,53,-99.99,,,0.00,Acu-Link.com,2013-05-28 17:14:00,
2013-05-28 13:29:00,88.2,68.9,29.94,East,90,6.3,-999.0,53,-99.99,,,0.00,Acu-Link.com,2013-05-28 17:29:00,
2013-05-28 13:44:00,86.9,68.8,29.94,SE,135,7.8,-999.0,55,-99.99,,,0.00,Acu-Link.com,2013-05-28 17:44:00,
2013-05-28 13:59:00,88.7,69.3,29.93,ESE,112,7.8,-999.0,53,-99.99,,,0.00,Acu-Link.com,2013-05-28 17:59:00,
2013-05-28 14:15:00,88.7,69.3,29.93,ESE,112,8.9,-999.0,53,-99.99,,,0.00,Acu-Link.com,2013-05-28 18:15:00,
2013-05-28 14:30:00,89.2,69.8,29.93,South,180,7.3,-999.0,53,-99.99,,,0.00,Acu-Link.com,2013-05-28 18:30:00,
2013-05-28 14:45:00,88.3,69.5,29.92,East,90,8.3,-999.0,54,-99.99,,,0.00,Acu-Link.com,2013-05-28 18:45:00,
2013-05-28 15:00:00,89.4,70.5,29.92,East,90,7.3,-999.0,54,-99.99,,,0.00,Acu-Link.com,2013-05-28 19:00:00,
2013-05-28 15:15:00,88.9,70.1,29.91,ESE,112,11.9,-999.0,54,-99.99,,,0.00,Acu-Link.com,2013-05-28 19:15:00,
2013-05-28 15:31:00,89.4,70.0,29.90,ESE,112,13.0,-999.0,53,-99.99,,,0.00,Acu-Link.com,2013-05-28 19:31:00,
2013-05-28 15:46:00,89.2,70.3,29.90,ESE,112,7.8,-999.0,54,-99.99,,,0.00,Acu-Link.com,2013-05-28 19:46:00,
2013-05-28 16:01:00,89.1,70.3,29.90,East,90,8.3,-999.0,54,-99.99,,,0.00,Acu-Link.com,2013-05-28 20:01:00,
2013-05-28 16:16:00,88.9,69.5,29.89,East,90,10.4,-999.0,53,-99.99,,,0.00,Acu-Link.com,2013-05-28 20:16:00,
2013-05-28 16:32:00,89.2,70.3,29.89,SSE,157,10.9,-999.0,54,-99.99,,,0.00,Acu-Link.com,2013-05-28 20:32:00,
2013-05-28 16:47:00,88.9,70.6,29.90,ESE,112,8.9,-999.0,55,-99.99,,,0.00,Acu-Link.com,2013-05-28 20:47:00,
2013-05-28 17:02:00,87.6,69.9,29.90,ESE,112,10.4,-999.0,56,-99.99,,,0.00,Acu-Link.com,2013-05-28 21:02:00,
2013-05-28 17:17:00,87.8,69.0,29.90,ESE,112,12.5,-999.0,54,-99.99,,,0.00,Acu-Link.com,2013-05-28 21:17:00,
2013-05-28 17:32:00,86.4,68.8,29.89,ESE,112,13.0,-999.0,56,-99.99,,,0.00,Acu-Link.com,2013-05-28 21:32:00,
2013-05-28 17:48:00,84.6,69.2,29.89,East,90,12.5,-999.0,60,-99.99,,,0.00,Acu-Link.com,2013-05-28 21:48:00,
2013-05-28 18:18:00,83.7,69.3,29.90,ENE,67,9.4,-999.0,62,-99.99,,,0.00,Acu-Link.com,2013-05-28 22:18:00,
2013-05-28 18:33:00,83.1,69.6,29.90,ESE,112,6.8,-999.0,64,-99.99,,,0.00,Acu-Link.com,2013-05-28 22:33:00,
2013-05-28 18:48:00,82.4,69.0,29.90,ESE,112,14.5,-999.0,64,-99.99,,,0.00,Acu-Link.com,2013-05-28 22:48:00,
2013-05-28 19:03:00,81.9,69.4,29.90,East,90,8.3,-999.0,66,-99.99,,,0.00,Acu-Link.com,2013-05-28 23:03:00,
2013-05-28 19:19:00,81.3,69.3,29.91,East,90,9.4,-999.0,67,-99.99,,,0.00,Acu-Link.com,2013-05-28 23:19:00,
2013-05-28 19:34:00,80.8,69.7,29.91,NNE,22,12.5,-999.0,69,-99.99,,,0.00,Acu-Link.com,2013-05-28 23:34:00,
2013-05-28 19:49:00,79.9,69.6,29.91,NE,45,8.9,-999.0,71,-99.99,,,0.00,Acu-Link.com,2013-05-28 23:49:00,
2013-05-28 20:04:00,79.2,69.8,29.92,East,90,7.3,-999.0,73,-99.99,,,0.00,Acu-Link.com,2013-05-29 00:04:00,
2013-05-28 20:19:00,77.9,70.1,29.92,ESE,112,8.3,-999.0,77,-99.99,,,0.00,Acu-Link.com,2013-05-29 00:19:00,
2013-05-28 20:35:00,77.7,69.9,29.92,ESE,112,6.8,-999.0,77,-99.99,,,0.00,Acu-Link.com,2013-05-29 00:35:00,
2013-05-28 20:50:00,77.2,70.2,29.92,ESE,112,5.3,-999.0,79,-99.99,,,0.00,Acu-Link.com,2013-05-29 00:50:00,
2013-05-28 21:05:00,76.8,70.1,29.92,ESE,112,7.3,-999.0,80,-99.99,,,0.00,Acu-Link.com,2013-05-29 01:05:00,
2013-05-28 21:20:00,76.5,70.2,29.92,ENE,67,5.8,-999.0,81,-99.99,,,0.00,Acu-Link.com,2013-05-29 01:20:00,
2013-05-28 21:35:00,76.3,70.4,29.92,East,90,4.7,-999.0,82,-99.99,,,0.00,Acu-Link.com,2013-05-29 01:35:00,
2013-05-28 21:51:00,76.1,70.9,29.93,ESE,112,7.3,-999.0,84,-99.99,,,0.00,Acu-Link.com,2013-05-29 01:51:00,
2013-05-28 22:06:00,75.9,71.1,29.93,East,90,2.7,-999.0,85,-99.99,,,0.00,Acu-Link.com,2013-05-29 02:06:00,
2013-05-28 22:21:00,75.7,71.2,29.94,East,90,4.2,-999.0,86,-99.99,,,0.00,Acu-Link.com,2013-05-29 02:21:00,
2013-05-28 22:36:00,75.7,71.2,29.94,East,90,3.2,-999.0,86,-99.99,,,0.00,Acu-Link.com,2013-05-29 02:36:00,
2013-05-28 22:52:00,75.7,71.2,29.94,ESE,112,4.7,-999.0,86,-99.99,,,0.00,Acu-Link.com,2013-05-29 02:52:00,
2013-05-28 23:07:00,75.4,71.3,29.95,East,90,3.7,-999.0,87,-99.99,,,0.00,Acu-Link.com,2013-05-29 03:07:00,
2013-05-28 23:22:00,74.8,71.0,29.94,NNE,22,3.2,-999.0,88,-99.99,,,0.00,Acu-Link.com,2013-05-29 03:22:00,
2013-05-28 23:37:00,74.7,70.9,29.95,East,90,2.7,-999.0,88,-99.99,,,0.00,Acu-Link.com,2013-05-29 03:37:00,
2013-05-28 23:52:00,74.5,71.0,29.94,ESE,112,4.7,-999.0,89,-99.99,,,0.00,Acu-Link.com,2013-05-29 03:52:00,